sensor_id;sensor_type;location;lat;lon;timestamp;temperature;humidity
12335;DHT22;6233;51.560;9.986;2023-04-01T00:00:26;9.30;99.90
12335;DHT22;6233;51.560;9.986;2023-04-01T00:03:28;9.30;99.90
12335;DHT22;6233;51.560;9.986;2023-04-01T00:06:31;9.30;99.90
12335;DHT22;6233;51.560;9.986;2023-04-01T00:09:32;9.30;99.90
12335;DHT22;6233;51.560;9.986;2023-04-01T00:12:35;9.30;99.90
12335;DHT22;6233;51.560;9.986;2023-04-01T00:15:37;9.30;99.90
12335;DHT22;6233;51.560;9.986;2023-04-01T00:18:39;9.30;99.90
12335;DHT22;6233;51.560;9.986;2023-04-01T00:21:41;9.20;99.90
12335;DHT22;6233;51.560;9.986;2023-04-01T00:24:43;9.30;99.90
12335;DHT22;6233;51.560;9.986;2023-04-01T00:27:45;9.30;99.90
12335;DHT22;6233;51.560;9.986;2023-04-01T00:30:47;9.30;99.90
12335;DHT22;6233;51.560;9.986;2023-04-01T00:33:49;9.30;99.90
12335;DHT22;6233;51.560;9.986;2023-04-01T00:36:51;9.20;99.90
12335;DHT22;6233;51.560;9.986;2023-04-01T00:39:54;9.20;99.90
12335;DHT22;6233;51.560;9.986;2023-04-01T00:42:56;9.20;99.90
12335;DHT22;6233;51.560;9.986;2023-04-01T00:45:58;9.20;99.90
12335;DHT22;6233;51.560;9.986;2023-04-01T00:49:00;9.20;99.90
12335;DHT22;6233;51.560;9.986;2023-04-01T00:52:04;9.20;99.90
12335;DHT22;6233;51.560;9.986;2023-04-01T00:55:08;9.10;99.90
12335;DHT22;6233;51.560;9.986;2023-04-01T00:58:15;9.10;99.90
12335;DHT22;6233;51.560;9.986;2023-04-01T01:01:20;9.20;99.90
12335;DHT22;6233;51.560;9.986;2023-04-01T01:04:29;9.10;99.90
12335;DHT22;6233;51.560;9.986;2023-04-01T01:10:50;9.10;99.90
12335;DHT22;6233;51.560;9.986;2023-04-01T01:14:06;9.10;99.90
12335;DHT22;6233;51.560;9.986;2023-04-01T01:27:11;9.10;99.90
12335;DHT22;6233;51.560;9.986;2023-04-01T01:36:49;9.10;99.90
12335;DHT22;6233;51.560;9.986;2023-04-01T01:40:04;9.10;99.90
12335;DHT22;6233;51.560;9.986;2023-04-01T01:43:10;9.10;99.90
12335;DHT22;6233;51.560;9.986;2023-04-01T01:46:17;9.10;99.90
12335;DHT22;6233;51.560;9.986;2023-04-01T01:49:21;9.10;99.90
12335;DHT22;6233;51.560;9.986;2023-04-01T01:52:24;9.00;99.90
12335;DHT22;6233;51.560;9.986;2023-04-01T01:58:35;9.00;99.90
12335;DHT22;6233;51.560;9.986;2023-04-01T02:01:45;8.90;99.90
12335;DHT22;6233;51.560;9.986;2023-04-01T02:04:49;8.90;99.90
12335;DHT22;6233;51.560;9.986;2023-04-01T02:08:08;8.90;99.90
12335;DHT22;6233;51.560;9.986;2023-04-01T02:11:13;8.90;99.90
12335;DHT22;6233;51.560;9.986;2023-04-01T02:14:22;8.90;99.90
12335;DHT22;6233;51.560;9.986;2023-04-01T02:17:27;9.00;99.90
12335;DHT22;6233;51.560;9.986;2023-04-01T02:20:30;8.90;99.90
12335;DHT22;6233;51.560;9.986;2023-04-01T02:23:36;8.90;99.90
12335;DHT22;6233;51.560;9.986;2023-04-01T02:26:39;8.90;99.90
12335;DHT22;6233;51.560;9.986;2023-04-01T02:29:41;8.90;99.90
12335;DHT22;6233;51.560;9.986;2023-04-01T02:32:43;8.90;99.90
12335;DHT22;6233;51.560;9.986;2023-04-01T02:35:46;9.00;99.90
12335;DHT22;6233;51.560;9.986;2023-04-01T02:38:48;8.90;99.90
12335;DHT22;6233;51.560;9.986;2023-04-01T02:41:51;8.90;99.90
12335;DHT22;6233;51.560;9.986;2023-04-01T02:44:53;8.90;99.90
12335;DHT22;6233;51.560;9.986;2023-04-01T02:47:55;8.90;99.90
12335;DHT22;6233;51.560;9.986;2023-04-01T02:50:57;8.90;99.90
12335;DHT22;6233;51.560;9.986;2023-04-01T02:53:59;8.90;99.90
12335;DHT22;6233;51.560;9.986;2023-04-01T02:57:01;8.80;99.90
12335;DHT22;6233;51.560;9.986;2023-04-01T03:00:03;8.90;99.90
12335;DHT22;6233;51.560;9.986;2023-04-01T03:03:05;8.80;99.90
12335;DHT22;6233;51.560;9.986;2023-04-01T03:06:09;8.80;99.90
12335;DHT22;6233;51.560;9.986;2023-04-01T03:09:11;8.80;99.90
12335;DHT22;6233;51.560;9.986;2023-04-01T03:12:14;8.80;99.90
12335;DHT22;6233;51.560;9.986;2023-04-01T03:15:16;8.80;99.90
12335;DHT22;6233;51.560;9.986;2023-04-01T03:18:18;8.80;99.90
12335;DHT22;6233;51.560;9.986;2023-04-01T03:21:22;8.90;99.90
12335;DHT22;6233;51.560;9.986;2023-04-01T03:24:24;8.80;99.90
12335;DHT22;6233;51.560;9.986;2023-04-01T03:27:26;8.80;99.90
12335;DHT22;6233;51.560;9.986;2023-04-01T03:30:28;8.80;99.90
12335;DHT22;6233;51.560;9.986;2023-04-01T03:33:32;8.80;99.90
12335;DHT22;6233;51.560;9.986;2023-04-01T03:36:33;8.80;99.90
12335;DHT22;6233;51.560;9.986;2023-04-01T03:39:35;8.80;99.90
12335;DHT22;6233;51.560;9.986;2023-04-01T03:42:37;8.80;99.90
12335;DHT22;6233;51.560;9.986;2023-04-01T03:45:50;8.80;99.90
12335;DHT22;6233;51.560;9.986;2023-04-01T03:48:52;8.80;99.90
12335;DHT22;6233;51.560;9.986;2023-04-01T03:51:54;8.80;99.90
12335;DHT22;6233;51.560;9.986;2023-04-01T03:54:56;8.80;99.90
12335;DHT22;6233;51.560;9.986;2023-04-01T03:57:58;8.90;99.90
12335;DHT22;6233;51.560;9.986;2023-04-01T04:00:59;8.80;99.90
12335;DHT22;6233;51.560;9.986;2023-04-01T04:04:01;8.80;99.90
12335;DHT22;6233;51.560;9.986;2023-04-01T04:07:03;8.80;99.90
12335;DHT22;6233;51.560;9.986;2023-04-01T04:10:06;8.80;99.90
12335;DHT22;6233;51.560;9.986;2023-04-01T04:13:08;8.80;99.90
12335;DHT22;6233;51.560;9.986;2023-04-01T04:16:10;8.70;99.90
12335;DHT22;6233;51.560;9.986;2023-04-01T04:19:12;8.70;99.90
12335;DHT22;6233;51.560;9.986;2023-04-01T04:22:14;8.70;99.90
12335;DHT22;6233;51.560;9.986;2023-04-01T04:25:15;8.70;99.90
12335;DHT22;6233;51.560;9.986;2023-04-01T04:28:17;8.70;99.90
12335;DHT22;6233;51.560;9.986;2023-04-01T04:31:20;8.60;99.90
12335;DHT22;6233;51.560;9.986;2023-04-01T04:34:23;8.60;99.90
12335;DHT22;6233;51.560;9.986;2023-04-01T04:37:25;8.60;99.90
12335;DHT22;6233;51.560;9.986;2023-04-01T04:40:27;8.60;99.90
12335;DHT22;6233;51.560;9.986;2023-04-01T04:43:29;8.60;99.90
12335;DHT22;6233;51.560;9.986;2023-04-01T04:46:30;8.50;99.90
12335;DHT22;6233;51.560;9.986;2023-04-01T04:49:32;8.50;99.90
12335;DHT22;6233;51.560;9.986;2023-04-01T04:52:34;8.50;99.90
12335;DHT22;6233;51.560;9.986;2023-04-01T04:55:36;8.50;99.90
12335;DHT22;6233;51.560;9.986;2023-04-01T04:58:39;8.50;99.90
12335;DHT22;6233;51.560;9.986;2023-04-01T05:01:41;8.50;99.90
12335;DHT22;6233;51.560;9.986;2023-04-01T05:04:43;8.50;99.90
12335;DHT22;6233;51.560;9.986;2023-04-01T05:07:45;8.50;99.90
12335;DHT22;6233;51.560;9.986;2023-04-01T05:10:47;8.50;99.90
12335;DHT22;6233;51.560;9.986;2023-04-01T05:13:49;8.50;99.90
12335;DHT22;6233;51.560;9.986;2023-04-01T05:16:51;8.60;99.90
12335;DHT22;6233;51.560;9.986;2023-04-01T05:19:53;8.50;99.90
12335;DHT22;6233;51.560;9.986;2023-04-01T05:22:59;8.50;99.90
12335;DHT22;6233;51.560;9.986;2023-04-01T05:26:06;8.60;99.90
12335;DHT22;6233;51.560;9.986;2023-04-01T05:29:07;8.50;99.90
12335;DHT22;6233;51.560;9.986;2023-04-01T05:32:09;8.50;99.90
12335;DHT22;6233;51.560;9.986;2023-04-01T05:35:11;8.50;99.90
12335;DHT22;6233;51.560;9.986;2023-04-01T05:38:13;8.50;99.90
12335;DHT22;6233;51.560;9.986;2023-04-01T05:41:15;8.50;99.90
12335;DHT22;6233;51.560;9.986;2023-04-01T05:44:17;8.50;99.90
12335;DHT22;6233;51.560;9.986;2023-04-01T05:47:19;8.50;99.90
12335;DHT22;6233;51.560;9.986;2023-04-01T05:50:21;8.50;99.90
12335;DHT22;6233;51.560;9.986;2023-04-01T05:53:23;8.60;99.90
12335;DHT22;6233;51.560;9.986;2023-04-01T05:56:25;8.50;99.90
12335;DHT22;6233;51.560;9.986;2023-04-01T05:59:26;8.50;99.90
12335;DHT22;6233;51.560;9.986;2023-04-01T06:02:28;8.50;99.90
12335;DHT22;6233;51.560;9.986;2023-04-01T06:05:42;8.50;99.90
12335;DHT22;6233;51.560;9.986;2023-04-01T06:08:45;8.50;99.90
12335;DHT22;6233;51.560;9.986;2023-04-01T06:12:28;8.50;99.90
12335;DHT22;6233;51.560;9.986;2023-04-01T06:15:44;8.50;99.90
12335;DHT22;6233;51.560;9.986;2023-04-01T06:26:09;8.60;99.90
12335;DHT22;6233;51.560;9.986;2023-04-01T06:29:47;8.60;99.90
12335;DHT22;6233;51.560;9.986;2023-04-01T06:33:08;8.70;99.90
12335;DHT22;6233;51.560;9.986;2023-04-01T06:36:38;8.70;99.90
12335;DHT22;6233;51.560;9.986;2023-04-01T06:39:48;8.80;99.90
12335;DHT22;6233;51.560;9.986;2023-04-01T06:46:29;8.80;99.90
12335;DHT22;6233;51.560;9.986;2023-04-01T06:56:08;8.90;99.90
12335;DHT22;6233;51.560;9.986;2023-04-01T06:59:20;9.00;99.90
12335;DHT22;6233;51.560;9.986;2023-04-01T07:02:38;9.00;99.90
12335;DHT22;6233;51.560;9.986;2023-04-01T07:05:41;9.00;99.90
12335;DHT22;6233;51.560;9.986;2023-04-01T07:08:44;9.00;99.90
12335;DHT22;6233;51.560;9.986;2023-04-01T07:11:46;9.00;99.90
12335;DHT22;6233;51.560;9.986;2023-04-01T07:14:48;9.00;99.90
12335;DHT22;6233;51.560;9.986;2023-04-01T07:17:56;9.00;99.90
12335;DHT22;6233;51.560;9.986;2023-04-01T07:21:00;9.10;99.90
12335;DHT22;6233;51.560;9.986;2023-04-01T07:24:11;9.10;99.90
12335;DHT22;6233;51.560;9.986;2023-04-01T07:27:15;9.10;99.90
12335;DHT22;6233;51.560;9.986;2023-04-01T07:30:22;9.10;99.90
12335;DHT22;6233;51.560;9.986;2023-04-01T07:33:33;9.20;99.90
12335;DHT22;6233;51.560;9.986;2023-04-01T07:47:04;9.20;99.90
12335;DHT22;6233;51.560;9.986;2023-04-01T07:50:17;9.20;99.90
12335;DHT22;6233;51.560;9.986;2023-04-01T07:56:55;9.20;99.90
12335;DHT22;6233;51.560;9.986;2023-04-01T08:07:13;9.20;99.90
12335;DHT22;6233;51.560;9.986;2023-04-01T08:13:53;9.30;99.90
12335;DHT22;6233;51.560;9.986;2023-04-01T08:23:41;9.50;99.90
12335;DHT22;6233;51.560;9.986;2023-04-01T08:26:49;9.40;99.90
12335;DHT22;6233;51.560;9.986;2023-04-01T08:29:56;9.40;99.90
12335;DHT22;6233;51.560;9.986;2023-04-01T08:36:15;9.40;99.90
12335;DHT22;6233;51.560;9.986;2023-04-01T08:39:30;9.50;99.90
12335;DHT22;6233;51.560;9.986;2023-04-01T08:59:22;9.70;99.90
12335;DHT22;6233;51.560;9.986;2023-04-01T09:02:38;9.70;99.90
12335;DHT22;6233;51.560;9.986;2023-04-01T09:39:37;10.70;99.90
12335;DHT22;6233;51.560;9.986;2023-04-01T09:46:36;10.60;99.90
12335;DHT22;6233;51.560;9.986;2023-04-01T09:55:57;10.90;99.90
12335;DHT22;6233;51.560;9.986;2023-04-01T09:59:13;11.00;99.90
12335;DHT22;6233;51.560;9.986;2023-04-01T10:36:58;11.10;99.90
12335;DHT22;6233;51.560;9.986;2023-04-01T10:57:29;11.10;99.90
12335;DHT22;6233;51.560;9.986;2023-04-01T11:15:10;10.70;99.90
12335;DHT22;6233;51.560;9.986;2023-04-01T11:28:14;10.60;99.90
12335;DHT22;6233;51.560;9.986;2023-04-01T11:32:29;10.60;99.90
12335;DHT22;6233;51.560;9.986;2023-04-01T11:35:03;10.70;99.90
12335;DHT22;6233;51.560;9.986;2023-04-01T11:41:31;10.70;99.90
12335;DHT22;6233;51.560;9.986;2023-04-01T11:44:39;10.80;99.90
12335;DHT22;6233;51.560;9.986;2023-04-01T12:00:41;11.20;99.90
12335;DHT22;6233;51.560;9.986;2023-04-01T12:11:05;11.30;99.90
12335;DHT22;6233;51.560;9.986;2023-04-01T12:15:10;11.40;99.90
12335;DHT22;6233;51.560;9.986;2023-04-01T12:17:56;11.60;99.90
12335;DHT22;6233;51.560;9.986;2023-04-01T12:21:26;11.60;99.90
12335;DHT22;6233;51.560;9.986;2023-04-01T12:31:42;11.40;99.90
12335;DHT22;6233;51.560;9.986;2023-04-01T12:47:38;11.80;99.90
12335;DHT22;6233;51.560;9.986;2023-04-01T13:04:56;12.00;99.90
12335;DHT22;6233;51.560;9.986;2023-04-01T13:11:14;12.20;99.90
12335;DHT22;6233;51.560;9.986;2023-04-01T13:25:47;12.40;99.90
12335;DHT22;6233;51.560;9.986;2023-04-01T13:28:47;12.50;99.90
12335;DHT22;6233;51.560;9.986;2023-04-01T13:32:18;12.50;99.90
12335;DHT22;6233;51.560;9.986;2023-04-01T13:52:05;11.40;99.90
12335;DHT22;6233;51.560;9.986;2023-04-01T14:01:53;11.50;99.90
12335;DHT22;6233;51.560;9.986;2023-04-01T14:11:55;11.70;99.90
12335;DHT22;6233;51.560;9.986;2023-04-01T14:28:35;12.20;99.90
12335;DHT22;6233;51.560;9.986;2023-04-01T14:31:42;12.20;99.90
12335;DHT22;6233;51.560;9.986;2023-04-01T14:38:31;12.20;99.90
12335;DHT22;6233;51.560;9.986;2023-04-01T14:41:45;12.10;99.90
12335;DHT22;6233;51.560;9.986;2023-04-01T14:51:37;11.90;99.90
12335;DHT22;6233;51.560;9.986;2023-04-01T14:54:44;11.70;99.90
12335;DHT22;6233;51.560;9.986;2023-04-01T14:58:09;11.60;99.90
12335;DHT22;6233;51.560;9.986;2023-04-01T15:14:16;11.40;99.90
12335;DHT22;6233;51.560;9.986;2023-04-01T15:17:44;11.40;99.90
12335;DHT22;6233;51.560;9.986;2023-04-01T15:27:32;11.10;99.90
12335;DHT22;6233;51.560;9.986;2023-04-01T15:30:52;11.20;99.90
12335;DHT22;6233;51.560;9.986;2023-04-01T15:37:37;11.10;99.90
12335;DHT22;6233;51.560;9.986;2023-04-01T16:04:48;11.30;99.90
12335;DHT22;6233;51.560;9.986;2023-04-01T16:08:37;11.40;99.90
12335;DHT22;6233;51.560;9.986;2023-04-01T16:12:10;11.20;99.90
12335;DHT22;6233;51.560;9.986;2023-04-01T16:15:34;11.20;99.90
12335;DHT22;6233;51.560;9.986;2023-04-01T16:21:45;11.10;99.90
12335;DHT22;6233;51.560;9.986;2023-04-01T16:25:07;11.00;99.90
12335;DHT22;6233;51.560;9.986;2023-04-01T16:38:26;10.80;99.90
12335;DHT22;6233;51.560;9.986;2023-04-01T16:41:46;10.90;99.90
12335;DHT22;6233;51.560;9.986;2023-04-01T16:48:13;10.80;99.90
12335;DHT22;6233;51.560;9.986;2023-04-01T16:51:16;10.70;99.90
12335;DHT22;6233;51.560;9.986;2023-04-01T16:55:12;10.80;99.90
12335;DHT22;6233;51.560;9.986;2023-04-01T16:57:52;10.70;99.90
12335;DHT22;6233;51.560;9.986;2023-04-01T17:01:13;10.70;99.90
12335;DHT22;6233;51.560;9.986;2023-04-01T17:21:10;10.30;99.90
12335;DHT22;6233;51.560;9.986;2023-04-01T17:31:20;10.20;99.90
12335;DHT22;6233;51.560;9.986;2023-04-01T17:38:06;10.20;99.90
12335;DHT22;6233;51.560;9.986;2023-04-01T17:45:21;10.00;99.90
12335;DHT22;6233;51.560;9.986;2023-04-01T17:58:59;9.70;99.90
12335;DHT22;6233;51.560;9.986;2023-04-01T18:12:00;9.50;99.90
12335;DHT22;6233;51.560;9.986;2023-04-01T18:21:52;9.60;99.90
12335;DHT22;6233;51.560;9.986;2023-04-01T18:25:17;9.60;99.90
12335;DHT22;6233;51.560;9.986;2023-04-01T18:39:15;9.60;99.90
12335;DHT22;6233;51.560;9.986;2023-04-01T18:42:29;9.60;99.90
12335;DHT22;6233;51.560;9.986;2023-04-01T18:45:58;9.60;99.90
12335;DHT22;6233;51.560;9.986;2023-04-01T18:49:16;9.50;99.90
12335;DHT22;6233;51.560;9.986;2023-04-01T18:55:35;9.60;99.90
12335;DHT22;6233;51.560;9.986;2023-04-01T18:58:55;9.60;99.90
12335;DHT22;6233;51.560;9.986;2023-04-01T19:05:36;9.60;99.90
12335;DHT22;6233;51.560;9.986;2023-04-01T19:08:40;9.60;99.90
12335;DHT22;6233;51.560;9.986;2023-04-01T19:11:54;9.40;99.90
12335;DHT22;6233;51.560;9.986;2023-04-01T19:22:12;9.40;99.90
12335;DHT22;6233;51.560;9.986;2023-04-01T19:28:43;9.30;99.90
12335;DHT22;6233;51.560;9.986;2023-04-01T19:35:44;9.40;99.90
12335;DHT22;6233;51.560;9.986;2023-04-01T19:39:24;9.30;99.90
12335;DHT22;6233;51.560;9.986;2023-04-01T19:52:43;9.20;99.90
12335;DHT22;6233;51.560;9.986;2023-04-01T19:56:16;9.20;99.90
12335;DHT22;6233;51.560;9.986;2023-04-01T19:59:57;9.20;99.90
12335;DHT22;6233;51.560;9.986;2023-04-01T20:10:12;9.10;99.90
12335;DHT22;6233;51.560;9.986;2023-04-01T20:13:21;9.20;99.90
12335;DHT22;6233;51.560;9.986;2023-04-01T20:26:53;8.80;99.90
12335;DHT22;6233;51.560;9.986;2023-04-01T20:30:24;8.70;99.90
12335;DHT22;6233;51.560;9.986;2023-04-01T20:37:00;8.50;99.90
12335;DHT22;6233;51.560;9.986;2023-04-01T20:40:41;8.40;99.90
12335;DHT22;6233;51.560;9.986;2023-04-01T20:55:21;8.20;99.90
12335;DHT22;6233;51.560;9.986;2023-04-01T21:08:17;8.00;99.90
12335;DHT22;6233;51.560;9.986;2023-04-01T21:28:59;7.90;99.90
12335;DHT22;6233;51.560;9.986;2023-04-01T21:32:14;7.80;99.90
12335;DHT22;6233;51.560;9.986;2023-04-01T21:45:31;7.80;99.90
12335;DHT22;6233;51.560;9.986;2023-04-01T21:49:01;7.80;99.90
12335;DHT22;6233;51.560;9.986;2023-04-01T21:55:49;7.60;99.90
12335;DHT22;6233;51.560;9.986;2023-04-01T22:09:41;7.40;99.90
12335;DHT22;6233;51.560;9.986;2023-04-01T22:16:57;7.30;99.90
12335;DHT22;6233;51.560;9.986;2023-04-01T22:23:32;7.20;99.90
12335;DHT22;6233;51.560;9.986;2023-04-01T22:33:32;6.90;99.90
12335;DHT22;6233;51.560;9.986;2023-04-01T22:36:52;6.80;99.90
12335;DHT22;6233;51.560;9.986;2023-04-01T22:43:15;6.60;99.90
12335;DHT22;6233;51.560;9.986;2023-04-01T22:46:32;6.50;99.90
12335;DHT22;6233;51.560;9.986;2023-04-01T22:49:43;6.60;99.90
12335;DHT22;6233;51.560;9.986;2023-04-01T22:53:19;6.50;99.90
12335;DHT22;6233;51.560;9.986;2023-04-01T22:56:23;6.40;99.90
12335;DHT22;6233;51.560;9.986;2023-04-01T22:59:40;6.40;99.90
12335;DHT22;6233;51.560;9.986;2023-04-01T23:03:08;6.40;99.90
12335;DHT22;6233;51.560;9.986;2023-04-01T23:06:19;6.40;99.90
12335;DHT22;6233;51.560;9.986;2023-04-01T23:09:30;6.30;99.90
12335;DHT22;6233;51.560;9.986;2023-04-01T23:12:33;6.20;99.90
12335;DHT22;6233;51.560;9.986;2023-04-01T23:15:36;6.20;99.90
12335;DHT22;6233;51.560;9.986;2023-04-01T23:18:58;6.20;99.90
12335;DHT22;6233;51.560;9.986;2023-04-01T23:28:54;6.00;99.90
12335;DHT22;6233;51.560;9.986;2023-04-01T23:32:02;6.00;99.90
12335;DHT22;6233;51.560;9.986;2023-04-01T23:35:15;5.90;99.90
12335;DHT22;6233;51.560;9.986;2023-04-01T23:38:20;5.90;99.90
12335;DHT22;6233;51.560;9.986;2023-04-01T23:41:28;5.90;99.90
12335;DHT22;6233;51.560;9.986;2023-04-01T23:44:31;5.80;99.90
12335;DHT22;6233;51.560;9.986;2023-04-01T23:47:36;5.80;99.90
12335;DHT22;6233;51.560;9.986;2023-04-01T23:50:39;5.70;99.90
12335;DHT22;6233;51.560;9.986;2023-04-01T23:53:44;5.70;99.90
12335;DHT22;6233;51.560;9.986;2023-04-01T23:56:50;5.60;99.90
